Terminal Aerodrome Forecast
Issued by NWS

Home | Current Version | Previous Version | Text Only | Print | Product List | Glossary On
Versions: 1 2 3 4 5 6 7 8 9 10 11 12 13 14 15 16 17 18 19 20 21 22 23 24 25 26 27 28 29
000
FTUS41 KRLX 271729
TAFCKB
TAF
KCKB 271729Z 2718/2818 22010KT P6SM -SHRA OVC045
      TEMPO 2718/2720 OVC025
     FM272100 15003KT P6SM SCT045 BKN080
     FM280500 15002KT P6SM BKN120=

USA.gov is the U.S. government's official web portal to all federal, state and local government web resources and services.